createdAt,value
2017-02-19T00:01:02.880Z,47.96
2017-02-19T00:02:16.635Z,48.35
2017-02-19T00:03:30.330Z,48.64
2017-02-19T00:04:44.048Z,48.83
2017-02-19T00:05:57.747Z,48.74
2017-02-19T00:07:10.876Z,49.12
2017-02-19T00:08:23.389Z,49.02
2017-02-19T00:09:37.110Z,48.74
2017-02-19T00:10:50.839Z,49.12
2017-02-19T00:12:04.569Z,48.93
2017-02-19T00:13:18.311Z,48.93
2017-02-19T00:14:32.040Z,49.02
2017-02-19T00:15:45.780Z,49.02
2017-02-19T00:16:59.497Z,48.93
2017-02-19T00:18:13.256Z,49.02
2017-02-19T00:19:26.407Z,49.22
2017-02-19T00:20:38.921Z,49.32
2017-02-19T00:21:52.632Z,49.12
2017-02-19T00:23:06.324Z,49.22
2017-02-19T00:24:20.139Z,49.61
2017-02-19T00:25:33.279Z,49.32
2017-02-19T00:26:46.993Z,49.51
2017-02-19T00:28:00.749Z,49.61
2017-02-19T00:29:14.461Z,49.99
2017-02-19T00:30:27.589Z,50.38
2017-02-19T00:31:41.368Z,50.96
2017-02-19T00:32:55.048Z,50.87
2017-02-19T00:34:08.134Z,50.96
2017-02-19T00:35:21.248Z,51.25
2017-02-19T00:36:34.953Z,51.25
2017-02-19T00:37:47.488Z,51.35
2017-02-19T00:39:01.211Z,51.93
2017-02-19T00:40:14.347Z,52.22
2017-02-19T00:41:28.032Z,52.12
2017-02-19T00:42:41.755Z,52.61
2017-02-19T00:43:55.472Z,52.32
2017-02-19T00:45:09.182Z,52.51
2017-02-19T00:46:21.703Z,52.71
2017-02-19T00:47:35.462Z,52.9
2017-02-19T00:48:49.211Z,52.61
2017-02-19T00:50:02.911Z,52.8
2017-02-19T00:51:16.655Z,52.9
2017-02-19T00:52:30.379Z,53.45
2017-02-19T00:53:44.153Z,52.12
2017-02-19T00:54:57.865Z,48.83
2017-02-19T00:56:11.590Z,47.57
2017-02-19T00:57:24.724Z,46.12
2017-02-19T00:58:38.447Z,43.79
2017-02-19T00:59:52.203Z,43.5
2017-02-19T01:01:05.932Z,42.05
2017-02-19T01:02:18.478Z,42.14
2017-02-19T01:03:32.175Z,42.85
2017-02-19T01:04:45.282Z,42.82
2017-02-19T01:05:59.025Z,43.7
2017-02-19T01:07:12.708Z,42.46
2017-02-19T01:08:25.847Z,43.33
2017-02-19T01:09:39.574Z,41.86
2017-02-19T01:10:53.296Z,40.99
2017-02-19T01:12:07.018Z,41.97
2017-02-19T01:13:20.740Z,41.76
2017-02-19T01:14:34.457Z,40.81
2017-02-19T01:15:48.177Z,40.52
2017-02-19T01:17:01.914Z,40.52
2017-02-19T01:18:15.032Z,41.08
2017-02-19T01:19:27.561Z,40.4
2017-02-19T01:20:40.673Z,40.21
2017-02-19T01:21:54.396Z,39.82
2017-02-19T01:23:07.526Z,40.03
2017-02-19T01:24:20.643Z,39.74
2017-02-19T01:25:34.367Z,40.33
2017-02-19T01:26:48.050Z,40.61
2017-02-19T01:28:01.776Z,41
2017-02-19T01:29:14.924Z,41.88
2017-02-19T01:30:28.640Z,41.76
2017-02-19T01:31:42.393Z,42.36
2017-02-19T01:32:56.090Z,42.55
2017-02-19T01:34:09.277Z,42.75
2017-02-19T01:35:23.006Z,42.36
2017-02-19T01:36:36.783Z,42.14
2017-02-19T01:37:50.525Z,42.44
2017-02-19T01:39:04.255Z,42.85
2017-02-19T01:40:17.406Z,42.94
2017-02-19T01:41:30.563Z,42.85
2017-02-19T01:42:44.303Z,43.12
2017-02-19T01:43:58.055Z,43.21
2017-02-19T01:45:11.753Z,42.85
2017-02-19T01:46:25.500Z,42.75
2017-02-19T01:47:39.232Z,42.75
2017-02-19T01:48:52.346Z,42.94
2017-02-19T01:50:05.496Z,44.47
2017-02-19T01:51:19.198Z,43.72
2017-02-19T01:52:32.939Z,43.62
2017-02-19T01:53:46.042Z,44.47
2017-02-19T01:54:59.778Z,43.82
2017-02-19T01:56:12.885Z,44.01
2017-02-19T01:57:26.617Z,43.91
2017-02-19T01:58:39.729Z,44.47
2017-02-19T01:59:53.454Z,44.96
2017-02-19T02:05:28.209Z,46.02
2017-02-19T02:06:42.341Z,45.83
2017-02-19T02:07:56.425Z,46.02
2017-02-19T02:09:10.439Z,46.6
2017-02-19T02:10:23.528Z,45.83
2017-02-19T02:11:36.621Z,46.22
2017-02-19T02:12:49.731Z,47.19
2017-02-19T02:14:03.434Z,47.38
2017-02-19T02:15:17.160Z,47.38
2017-02-19T02:16:30.855Z,48.64
2017-02-19T02:17:44.596Z,48.54
2017-02-19T02:18:58.304Z,50.29
2017-02-19T02:20:11.469Z,49.51
2017-02-19T02:21:24.599Z,49.41
2017-02-19T02:22:38.298Z,49.9
2017-02-19T02:23:52.000Z,49.61
2017-02-19T02:25:05.779Z,50.09
2017-02-19T02:26:19.503Z,50.67
2017-02-19T02:27:33.249Z,51.06
2017-02-19T02:28:47.029Z,51.54
2017-02-19T02:30:00.760Z,52.51
2017-02-19T02:35:06.085Z,53.19
2017-02-19T02:36:19.560Z,53.29
2017-02-19T02:37:33.052Z,53.19
2017-02-19T02:38:47.168Z,53.49
2017-02-19T02:40:01.133Z,53.67
2017-02-19T02:41:14.796Z,52.97
2017-02-19T02:42:28.485Z,53.45
2017-02-19T02:43:42.193Z,53.07
2017-02-19T02:44:55.867Z,53.65
2017-02-19T02:46:09.583Z,54.52
2017-02-19T02:47:22.711Z,56.46
2017-02-19T02:48:36.447Z,56.07
2017-02-19T02:49:50.159Z,56.16
2017-02-19T02:51:03.290Z,56.65
2017-02-19T02:52:17.035Z,56.56
2017-02-19T02:53:30.733Z,56.75
2017-02-19T02:54:44.456Z,56.56
2017-02-19T02:55:58.183Z,56.94
2017-02-19T02:57:11.336Z,57.11
2017-02-19T02:58:25.032Z,56.82
2017-02-19T02:59:38.782Z,57.79
2017-02-19T03:00:52.464Z,57.98
2017-02-19T03:02:06.170Z,57.2
2017-02-19T03:03:19.275Z,57.01
2017-02-19T03:04:32.390Z,56.24
2017-02-19T03:05:46.072Z,56.62
2017-02-19T03:06:59.779Z,56.62
2017-02-19T03:08:12.290Z,56.52
2017-02-19T03:09:26.051Z,56.43
2017-02-19T03:10:39.158Z,56.62
2017-02-19T03:11:52.876Z,55.27
2017-02-19T03:13:06.616Z,55.66
2017-02-19T03:14:19.734Z,54.88
2017-02-19T03:15:33.452Z,54.3
2017-02-19T03:16:47.162Z,54.49
2017-02-19T03:18:00.281Z,54.49
2017-02-19T03:19:14.007Z,54.59
2017-02-19T03:20:27.744Z,54.79
2017-02-19T03:21:41.578Z,54.98
2017-02-19T03:22:55.324Z,55.56
2017-02-19T03:24:09.033Z,55.17
2017-02-19T03:25:22.758Z,55.94
2017-02-19T03:26:36.537Z,56.34
2017-02-19T03:27:50.245Z,56.72
2017-02-19T03:29:03.973Z,57.08
2017-02-19T03:30:17.105Z,57.76
2017-02-19T03:31:30.857Z,58.24
2017-02-19T03:32:44.593Z,58.04
2017-02-19T03:33:58.334Z,57.95
2017-02-19T03:35:12.054Z,58.24
2017-02-19T03:36:25.149Z,58.63
2017-02-19T03:37:38.849Z,58.34
2017-02-19T03:38:52.548Z,58.82
2017-02-19T03:40:06.231Z,59.56
2017-02-19T03:41:19.303Z,58.98
2017-02-19T03:42:32.989Z,58.31
2017-02-19T03:43:46.716Z,58.53
2017-02-19T03:45:00.437Z,58.63
2017-02-19T03:46:14.135Z,58.92
2017-02-19T03:47:27.860Z,58.5
2017-02-19T03:48:41.595Z,59.38
2017-02-19T03:49:55.328Z,59.08
2017-02-19T03:51:09.095Z,59.86
2017-02-19T03:52:22.239Z,60.14
2017-02-19T03:53:35.964Z,59.47
2017-02-19T03:54:49.677Z,60.11
2017-02-19T03:56:03.472Z,59.76
2017-02-19T03:57:16.048Z,60.02
2017-02-19T03:58:29.750Z,59.92
2017-02-19T03:59:43.466Z,59.53
2017-02-19T04:00:57.165Z,59.47
2017-02-19T04:02:10.293Z,59.18
2017-02-19T04:03:24.079Z,58.7
2017-02-19T04:04:37.857Z,59.18
2017-02-19T04:05:51.568Z,59.38
2017-02-19T04:07:04.697Z,59.28
2017-02-19T04:08:18.382Z,59.38
2017-02-19T04:09:32.122Z,59.28
2017-02-19T04:10:45.850Z,58.89
2017-02-19T04:11:59.559Z,58.89
2017-02-19T04:13:12.706Z,58.89
2017-02-19T04:14:25.860Z,58.6
2017-02-19T04:15:39.590Z,59.56
2017-02-19T04:16:53.273Z,59.47
2017-02-19T04:18:06.964Z,59.56
2017-02-19T04:19:19.480Z,58.6
2017-02-19T04:20:32.609Z,58.89
2017-02-19T04:21:46.374Z,58.98
2017-02-19T04:23:00.096Z,58.7
2017-02-19T04:24:13.806Z,58.8
2017-02-19T04:25:27.525Z,58.6
2017-02-19T04:26:41.188Z,59.66
2017-02-19T04:27:54.927Z,60.14
2017-02-19T04:29:08.711Z,60.34
2017-02-19T04:30:22.426Z,61.08
2017-02-19T04:31:36.120Z,59.83
2017-02-19T04:32:49.883Z,60.79
2017-02-19T04:34:03.624Z,59.63
2017-02-19T04:35:16.724Z,60.5
2017-02-19T04:36:30.451Z,60.89
2017-02-19T04:37:43.604Z,60.5
2017-02-19T04:38:57.321Z,60.6
2017-02-19T04:40:11.012Z,60.11
2017-02-19T04:41:24.139Z,60.5
2017-02-19T04:42:37.851Z,60.99
2017-02-19T04:43:51.558Z,61.66
2017-02-19T04:45:05.292Z,61.47
2017-02-19T04:46:19.009Z,61.37
2017-02-19T04:47:32.690Z,61.27
2017-02-19T04:48:46.421Z,62.05
2017-02-19T04:50:00.163Z,62.53
2017-02-19T04:51:13.875Z,62.24
2017-02-19T04:52:26.985Z,62.92
2017-02-19T04:53:40.761Z,63.11
2017-02-19T04:54:54.506Z,63.69
2017-02-19T04:56:08.265Z,64.18
2017-02-19T04:57:20.792Z,64.56
2017-02-19T04:58:34.524Z,65.14
2017-02-19T04:59:48.221Z,65.53
2017-02-19T05:01:01.959Z,66.36
2017-02-19T05:02:15.751Z,66.75
2017-02-19T05:03:28.895Z,66.75
2017-02-19T05:04:42.005Z,66.46
2017-02-19T05:05:55.713Z,66.3
2017-02-19T05:07:09.406Z,66.3
2017-02-19T05:08:23.135Z,66.78
2017-02-19T05:09:36.867Z,66.88
2017-02-19T05:10:50.562Z,66.59
2017-02-19T05:12:04.269Z,66.17
2017-02-19T05:13:17.379Z,67.14
2017-02-19T05:14:31.101Z,67.82
2017-02-19T05:15:44.818Z,68.55
2017-02-19T05:16:58.536Z,68.46
2017-02-19T05:18:12.279Z,68.75
2017-02-19T05:19:25.438Z,69.04
2017-02-19T05:20:39.190Z,68.84
2017-02-19T05:21:52.879Z,68.84
2017-02-19T05:23:06.544Z,68.46
2017-02-19T05:24:19.650Z,68.59
2017-02-19T05:25:33.358Z,69.07
2017-02-19T05:26:46.482Z,68.2
2017-02-19T05:28:00.179Z,67.91
2017-02-19T05:29:13.270Z,67.52
2017-02-19T05:30:27.030Z,67.82
2017-02-19T05:31:40.747Z,67.33
2017-02-19T05:32:54.436Z,68.2
2017-02-19T05:34:08.182Z,68.49
2017-02-19T05:35:21.266Z,67.91
2017-02-19T05:36:34.947Z,68.2
2017-02-19T05:37:48.755Z,68.46
2017-02-19T05:39:02.478Z,68.94
2017-02-19T05:40:15.602Z,69.42
2017-02-19T05:41:29.319Z,70
2017-02-19T05:42:43.004Z,70
2017-02-19T05:43:56.097Z,70.29
2017-02-19T05:45:09.818Z,70.87
2017-02-19T05:46:23.529Z,70.1
2017-02-19T05:47:37.218Z,69.74
2017-02-19T05:48:50.916Z,69.17
2017-02-19T05:50:04.614Z,69.84
2017-02-19T05:51:17.762Z,69.74
2017-02-19T05:52:31.483Z,69.84
2017-02-19T05:53:45.194Z,69.74
2017-02-19T05:54:58.910Z,68.49
2017-02-19T05:56:12.042Z,68.88
2017-02-19T05:57:25.229Z,69.46
2017-02-19T05:58:38.916Z,69.65
2017-02-19T05:59:52.638Z,70.23
2017-02-19T06:01:06.345Z,70.52
2017-02-19T06:02:19.440Z,70.62
2017-02-19T06:03:31.975Z,71
2017-02-19T06:04:45.690Z,71.39
2017-02-19T06:05:58.847Z,71.78
2017-02-19T06:07:12.550Z,71.68
2017-02-19T06:08:25.670Z,71.68
2017-02-19T06:09:38.795Z,71.97
2017-02-19T06:10:52.550Z,72.45
2017-02-19T06:12:06.285Z,72.16
2017-02-19T06:13:19.496Z,72.45
2017-02-19T06:14:33.259Z,73.19
2017-02-19T06:15:46.972Z,73.77
2017-02-19T06:17:00.681Z,74.06
2017-02-19T06:18:13.781Z,74.69
2017-02-19T06:19:26.913Z,75.09
2017-02-19T06:20:40.619Z,75.27
2017-02-19T06:21:54.450Z,76.15
2017-02-19T06:23:08.189Z,76.63
2017-02-19T06:24:21.335Z,76.92
2017-02-19T06:25:35.072Z,76.88
2017-02-19T06:26:48.811Z,77.07
2017-02-19T06:28:02.522Z,77.84
2017-02-19T06:29:15.651Z,77.65
2017-02-19T06:30:28.261Z,77.65
2017-02-19T06:31:41.972Z,77.75
2017-02-19T06:32:55.108Z,77.46
2017-02-19T06:34:08.786Z,78.33
2017-02-19T06:35:22.530Z,78.33
2017-02-19T06:36:36.194Z,78.42
2017-02-19T06:37:49.886Z,77.65
2017-02-19T06:39:03.644Z,76.88
2017-02-19T06:40:17.326Z,76.82
2017-02-19T06:41:30.415Z,76.82
2017-02-19T06:42:44.134Z,75.47
2017-02-19T06:43:57.809Z,73.63
2017-02-19T06:45:11.534Z,72.58
2017-02-19T06:46:25.232Z,73.15
2017-02-19T06:47:38.998Z,73.15
2017-02-19T06:48:52.114Z,73.63
2017-02-19T06:50:05.826Z,73.25
2017-02-19T06:51:18.326Z,73.15
2017-02-19T06:52:31.418Z,73
2017-02-19T06:53:44.543Z,73.09
2017-02-19T06:54:58.327Z,73.44
2017-02-19T06:56:12.026Z,73.93
2017-02-19T06:57:25.699Z,74.64
2017-02-19T06:58:39.400Z,73.93
2017-02-19T06:59:53.085Z,74.31
2017-02-19T07:01:06.780Z,74.79
2017-02-19T07:02:20.509Z,74.89
2017-02-19T07:03:33.608Z,75.47
2017-02-19T07:04:46.758Z,76.05
2017-02-19T07:06:00.465Z,76.53
2017-02-19T07:07:13.572Z,76.63
2017-02-19T07:08:26.675Z,76.88
2017-02-19T07:09:40.406Z,78.13
2017-02-19T07:10:54.099Z,78.81
2017-02-19T07:12:07.790Z,77.94
2017-02-19T07:13:20.922Z,77.65
2017-02-19T07:14:34.026Z,77.46
2017-02-19T07:15:47.761Z,77.17
2017-02-19T07:17:01.442Z,76.98
2017-02-19T07:18:14.533Z,76.4
2017-02-19T07:19:27.654Z,76.1
2017-02-19T07:20:41.352Z,74.89
2017-02-19T07:21:55.063Z,76.24
2017-02-19T07:23:08.727Z,76.34
2017-02-19T07:24:21.242Z,76.72
2017-02-19T07:25:34.975Z,76.15
2017-02-19T07:26:48.690Z,76.63
2017-02-19T07:28:02.401Z,76.63
2017-02-19T07:29:15.530Z,76.53
2017-02-19T07:30:28.068Z,76.63
2017-02-19T07:31:41.762Z,76.53
2017-02-19T07:32:55.514Z,76.72
2017-02-19T07:34:09.229Z,76.72
2017-02-19T07:35:22.329Z,77.01
2017-02-19T07:36:36.028Z,76.92
2017-02-19T07:37:49.831Z,77.3
2017-02-19T07:39:03.615Z,76.92
2017-02-19T07:40:16.717Z,76.53
2017-02-19T07:41:30.432Z,76.82
2017-02-19T07:42:44.157Z,76.53
2017-02-19T07:43:56.687Z,76.34
2017-02-19T07:45:10.354Z,76.05
2017-02-19T07:46:22.865Z,76.34
2017-02-19T07:47:35.967Z,76.24
2017-02-19T07:48:49.744Z,76.63
2017-02-19T07:50:03.464Z,77.21
2017-02-19T07:51:15.981Z,76.92
2017-02-19T07:52:29.137Z,77.5
2017-02-19T07:53:42.844Z,77.98
2017-02-19T07:54:56.537Z,77.59
2017-02-19T07:56:10.268Z,78.17
2017-02-19T07:57:23.964Z,78.46
2017-02-19T07:58:37.674Z,78.27
2017-02-19T07:59:51.379Z,78.94
2017-02-19T08:01:05.075Z,79.62
2017-02-19T08:02:18.242Z,79.58
2017-02-19T08:03:31.959Z,79.49
2017-02-19T08:04:45.055Z,80.45
2017-02-19T08:05:58.794Z,80.64
2017-02-19T08:07:12.834Z,81.37
2017-02-19T08:08:26.533Z,82.14
2017-02-19T08:09:40.291Z,82.62
2017-02-19T08:10:54.073Z,83.11
2017-02-19T08:12:07.782Z,83.84
2017-02-19T08:13:20.874Z,84.42
2017-02-19T08:14:34.610Z,84.99
2017-02-19T08:15:48.333Z,84.99
2017-02-19T08:17:02.070Z,84.7
2017-02-19T08:18:15.231Z,84.9
2017-02-19T08:19:28.932Z,85.09
2017-02-19T08:20:42.023Z,85.19
2017-02-19T08:21:55.786Z,85.57
2017-02-19T08:23:09.530Z,84.99
2017-02-19T08:24:22.639Z,84.9
2017-02-19T08:25:36.331Z,84.7
2017-02-19T08:26:50.041Z,84.22
2017-02-19T08:28:03.797Z,84.61
2017-02-19T08:29:17.504Z,84.32
2017-02-19T08:30:30.627Z,84.03
2017-02-19T08:31:44.363Z,84.9
2017-02-19T08:32:58.089Z,84.7
2017-02-19T08:34:11.232Z,85.57
2017-02-19T08:35:25.008Z,86.35
2017-02-19T08:36:38.704Z,85.96
2017-02-19T08:37:52.422Z,85.96
2017-02-19T08:39:06.134Z,86.3
2017-02-19T08:40:19.247Z,86.11
2017-02-19T08:41:32.948Z,85.72
2017-02-19T08:42:46.725Z,85.82
2017-02-19T08:44:00.433Z,86.11
2017-02-19T08:45:14.149Z,85.34
2017-02-19T08:46:27.850Z,85.24
2017-02-19T08:47:41.603Z,85.14
2017-02-19T08:48:55.303Z,85.72
2017-02-19T08:50:09.086Z,85.14
2017-02-19T08:51:22.827Z,84.9
2017-02-19T08:52:36.549Z,85.28
2017-02-19T08:53:49.716Z,85.57
2017-02-19T08:55:03.401Z,84.7
2017-02-19T08:56:17.173Z,84.9
2017-02-19T08:57:30.299Z,85.28
2017-02-19T08:58:43.424Z,84.61
2017-02-19T08:59:57.147Z,85.38
2017-02-19T09:01:10.355Z,85.38
2017-02-19T09:02:24.051Z,85.47
2017-02-19T09:03:37.777Z,84.8
2017-02-19T09:04:51.491Z,85.28
2017-02-19T09:06:05.167Z,84.7
2017-02-19T09:07:18.296Z,84.42
2017-02-19T09:08:32.048Z,83.64
2017-02-19T09:09:45.232Z,82.53
2017-02-19T09:10:58.944Z,82.24
2017-02-19T09:12:12.662Z,81.76
2017-02-19T09:13:25.170Z,81.12
2017-02-19T09:14:38.870Z,79.97
2017-02-19T09:15:52.609Z,79.77
2017-02-19T09:17:06.349Z,78.46
2017-02-19T09:18:20.083Z,78.56
2017-02-19T09:19:33.788Z,77.73
2017-02-19T09:20:47.531Z,77.05
2017-02-19T09:22:01.287Z,76.95
2017-02-19T09:23:15.024Z,76.18
2017-02-19T09:24:28.736Z,75.35
2017-02-19T09:25:42.440Z,75.16
2017-02-19T09:26:56.189Z,74.87
2017-02-19T09:28:09.348Z,74.48
2017-02-19T09:29:23.061Z,74.04
2017-02-19T09:30:36.174Z,73.55
2017-02-19T09:31:49.921Z,72.68
2017-02-19T09:33:03.614Z,72.2
2017-02-19T09:34:17.338Z,72.04
2017-02-19T09:35:30.439Z,71.84
2017-02-19T09:36:44.173Z,70.14
2017-02-19T09:37:57.906Z,69.17
2017-02-19T09:39:11.622Z,68.05
2017-02-19T09:40:25.409Z,67.3
2017-02-19T09:41:39.133Z,66.43
2017-02-19T09:42:52.257Z,65.98
2017-02-19T09:44:05.976Z,65.98
2017-02-19T09:45:19.091Z,65.4
2017-02-19T09:46:32.785Z,65.89
2017-02-19T09:47:46.504Z,65.59
2017-02-19T09:49:00.243Z,65.59
2017-02-19T09:50:13.959Z,66.56
2017-02-19T09:51:27.656Z,67.34
2017-02-19T09:52:41.355Z,67.72
2017-02-19T09:53:55.103Z,65.5
2017-02-19T09:55:08.809Z,65.34
2017-02-19T09:56:22.560Z,65.2
2017-02-19T09:57:35.696Z,64.75
2017-02-19T09:58:49.416Z,65.82
2017-02-19T10:00:03.157Z,65.63
2017-02-19T10:01:15.699Z,65.98
2017-02-19T10:02:29.438Z,65.69
2017-02-19T10:03:43.184Z,65.2
2017-02-19T10:04:56.965Z,64.47
2017-02-19T10:06:09.474Z,65.14
2017-02-19T10:07:22.641Z,65.3
2017-02-19T10:08:36.333Z,64.95
2017-02-19T10:09:50.042Z,64.65
2017-02-19T10:11:03.785Z,65.3
2017-02-19T10:12:17.536Z,64.72
2017-02-19T10:13:31.271Z,65.79
2017-02-19T10:14:45.010Z,66.47
2017-02-19T10:15:58.756Z,65.59
2017-02-19T10:17:11.924Z,65.4
2017-02-19T10:18:25.017Z,64.72
2017-02-19T10:19:38.749Z,64.72
2017-02-19T10:20:52.472Z,63.49
2017-02-19T10:22:06.199Z,62.26
2017-02-19T10:23:19.324Z,62.98
2017-02-19T10:24:33.043Z,61.61
2017-02-19T10:25:46.855Z,62.26
2017-02-19T10:27:00.000Z,62.85
2017-02-19T10:28:13.725Z,63.13
2017-02-19T10:29:27.446Z,61.61
2017-02-19T10:30:41.185Z,61.22
2017-02-19T10:31:54.875Z,60.35
2017-02-19T10:33:08.029Z,59.44
2017-02-19T10:34:21.767Z,58.67
2017-02-19T10:35:34.286Z,57.98
2017-02-19T10:36:48.039Z,57.36
2017-02-19T10:38:01.759Z,56.1
2017-02-19T10:39:14.899Z,56.03
2017-02-19T10:40:28.662Z,56.81
2017-02-19T10:41:42.392Z,56.29
2017-02-19T10:42:55.550Z,55.54
2017-02-19T10:44:09.278Z,54.79
2017-02-19T10:45:22.380Z,53.91
2017-02-19T10:46:36.159Z,54.43
2017-02-19T10:47:49.903Z,53.28
2017-02-19T10:49:03.627Z,52.8
2017-02-19T10:50:17.395Z,52.73
2017-02-19T10:51:30.514Z,52.04
2017-02-19T10:52:43.642Z,51.09
2017-02-19T10:53:57.400Z,51.41
2017-02-19T10:55:10.516Z,50.43
2017-02-19T10:56:24.246Z,49.85
2017-02-19T10:57:37.965Z,49.1
2017-02-19T10:58:51.685Z,49.98
2017-02-19T11:00:05.379Z,48.73
2017-02-19T11:01:17.317Z,48.75
2017-02-19T11:02:31.041Z,48.75
2017-02-19T11:03:44.769Z,48.75
2017-02-19T11:04:58.519Z,48.68
2017-02-19T11:06:11.650Z,48.09
2017-02-19T11:07:25.355Z,48.38
2017-02-19T11:08:39.062Z,48.68
2017-02-19T11:09:52.820Z,49.53
2017-02-19T11:11:06.584Z,49.9
2017-02-19T11:12:20.312Z,49.32
2017-02-19T11:13:33.500Z,48.75
2017-02-19T11:14:47.290Z,48.58
2017-02-19T11:16:00.378Z,48.48
2017-02-19T11:17:13.522Z,48.77
2017-02-19T11:18:26.674Z,49.46
2017-02-19T11:19:39.185Z,49.73
2017-02-19T11:20:52.289Z,49.33
2017-02-19T11:22:06.019Z,50.02
2017-02-19T11:23:19.745Z,50.71
2017-02-19T11:24:33.441Z,50.78
2017-02-19T11:25:47.134Z,49.32
2017-02-19T11:27:00.869Z,49.07
2017-02-19T11:28:14.018Z,48.77
2017-02-19T11:29:26.537Z,48.11
2017-02-19T11:30:39.656Z,47.53
2017-02-19T11:31:52.757Z,47.75
2017-02-19T11:33:06.485Z,46.69
2017-02-19T11:34:19.637Z,46.69
2017-02-19T11:35:33.357Z,46.89
2017-02-19T11:36:46.475Z,48.24
2017-02-19T11:38:00.217Z,48.5
2017-02-19T11:39:13.932Z,49.46
2017-02-19T11:40:27.114Z,48.77
2017-02-19T11:41:40.235Z,49.16
2017-02-19T11:42:54.009Z,48.02
2017-02-19T11:44:07.128Z,47.36
2017-02-19T11:45:20.833Z,46.89
2017-02-19T11:46:34.588Z,46.2
2017-02-19T11:47:48.296Z,46.79
2017-02-19T11:49:02.023Z,48.26
2017-02-19T11:50:15.145Z,48.11
2017-02-19T11:51:28.879Z,48.48
2017-02-19T11:52:42.584Z,48.38
2017-02-19T11:53:56.322Z,48.02
2017-02-19T11:55:10.031Z,48.02
2017-02-19T11:56:23.747Z,47.75
2017-02-19T11:57:37.510Z,46.89
2017-02-19T11:58:51.247Z,46.98
2017-02-19T12:00:04.995Z,47.65
2017-02-19T12:01:18.707Z,47.65
2017-02-19T12:02:32.463Z,48.8
2017-02-19T12:03:46.209Z,51
2017-02-19T12:04:59.954Z,50.39
2017-02-19T12:06:13.102Z,49.8
2017-02-19T12:07:26.817Z,50.65
2017-02-19T12:08:40.578Z,52.61
2017-02-19T12:09:54.330Z,54.09
2017-02-19T12:11:08.093Z,55.23
2017-02-19T12:12:21.252Z,54.28
2017-02-19T12:13:35.003Z,53.11
2017-02-19T12:14:48.126Z,51.8
2017-02-19T12:16:01.897Z,51.63
2017-02-19T12:17:15.640Z,51.63
2017-02-19T12:18:29.344Z,52.02
2017-02-19T12:19:43.062Z,51.43
2017-02-19T12:20:56.250Z,50.53
2017-02-19T12:22:09.954Z,50.65
2017-02-19T12:23:23.667Z,50.56
2017-02-19T12:24:37.388Z,49.32
2017-02-19T12:25:51.103Z,48.65
2017-02-19T12:27:04.847Z,47.63
2017-02-19T12:28:17.363Z,48.28
2017-02-19T12:29:31.063Z,47.89
2017-02-19T12:30:44.177Z,47.33
2017-02-19T12:31:57.909Z,48.21
2017-02-19T12:33:11.051Z,48.41
2017-02-19T12:34:24.789Z,47.31
2017-02-19T12:35:37.933Z,46.75
2017-02-19T12:36:50.472Z,46.97
2017-02-19T12:38:03.618Z,47.06
2017-02-19T12:39:16.763Z,47.47
2017-02-19T12:40:30.498Z,48.72
2017-02-19T12:41:44.251Z,49.16
2017-02-19T12:42:56.794Z,49.75
2017-02-19T12:44:10.554Z,51.17
2017-02-19T12:45:24.299Z,51.34
2017-02-19T12:46:38.115Z,50.73
2017-02-19T12:47:51.880Z,50.85
2017-02-19T12:49:05.584Z,49.71
2017-02-19T12:50:19.313Z,48.09
2017-02-19T12:51:33.105Z,46.28
2017-02-19T12:52:46.352Z,45.23
2017-02-19T12:54:00.081Z,44.38
2017-02-19T12:55:13.180Z,43.04
2017-02-19T12:56:26.947Z,43.05
2017-02-19T12:57:40.663Z,44.31
2017-02-19T12:58:53.762Z,45.17
2017-02-19T13:00:07.505Z,44.95
2017-02-19T13:01:21.235Z,46.89
2017-02-19T13:02:35.016Z,47.14
2017-02-19T13:03:48.769Z,45.89
2017-02-19T13:05:02.500Z,46.18
2017-02-19T13:06:15.615Z,47.92
2017-02-19T13:07:29.308Z,47.89
2017-02-19T13:08:43.057Z,47.72
2017-02-19T13:09:56.795Z,46.47
2017-02-19T13:11:09.911Z,47.7
2017-02-19T13:12:23.639Z,47.99
2017-02-19T13:13:37.400Z,47.8
2017-02-19T13:14:51.186Z,46.82
2017-02-19T13:16:04.874Z,48.94
2017-02-19T13:17:18.575Z,47.38
2017-02-19T13:18:32.374Z,47.95
2017-02-19T13:19:45.537Z,47.95
2017-02-19T13:20:59.358Z,47.77
2017-02-19T13:22:13.105Z,47.38
2017-02-19T13:23:26.214Z,47.17
2017-02-19T13:24:39.361Z,47.95
2017-02-19T13:25:52.456Z,46.01
2017-02-19T13:27:05.576Z,48.07
2017-02-19T13:28:19.288Z,48.41
2017-02-19T13:29:32.994Z,49.1
2017-02-19T13:30:46.125Z,49.07
2017-02-19T13:31:59.897Z,49.19
2017-02-19T13:33:13.052Z,48.02
2017-02-19T13:34:26.792Z,48.51
2017-02-19T13:35:40.507Z,48.02
2017-02-19T13:36:54.240Z,48.41
2017-02-19T13:38:07.968Z,48.1
2017-02-19T13:39:21.091Z,48.8
2017-02-19T13:40:34.219Z,48.58
2017-02-19T13:41:47.949Z,49.19
2017-02-19T13:43:01.636Z,49.78
2017-02-19T13:44:14.785Z,50.02
2017-02-19T13:45:28.508Z,49.07
2017-02-19T13:46:42.229Z,48.22
2017-02-19T13:47:56.005Z,48.68
2017-02-19T13:49:09.714Z,48.58
2017-02-19T13:50:23.418Z,47.63
2017-02-19T13:51:37.166Z,46.41
2017-02-19T13:52:50.938Z,47.31
2017-02-19T13:54:04.083Z,46.31
2017-02-19T13:55:17.218Z,46.8
2017-02-19T13:56:30.937Z,45.82
2017-02-19T13:57:44.672Z,46.04
2017-02-19T13:58:58.489Z,46.23
2017-02-19T14:00:11.009Z,46.99
2017-02-19T14:01:24.142Z,46.89
2017-02-19T14:02:37.874Z,46.39
2017-02-19T14:03:50.964Z,45.97
2017-02-19T14:05:04.111Z,46.29
2017-02-19T14:06:17.835Z,46.88
2017-02-19T14:07:31.589Z,46.78
2017-02-19T14:08:45.315Z,45.14
2017-02-19T14:09:59.060Z,44.35
2017-02-19T14:11:12.809Z,43.79
2017-02-19T14:12:25.355Z,44.2
2017-02-19T14:13:38.491Z,43.71
2017-02-19T14:14:52.265Z,43.91
2017-02-19T14:16:05.391Z,43.42
2017-02-19T14:17:19.151Z,43.52
2017-02-19T14:18:32.888Z,44.01
2017-02-19T14:19:46.605Z,43.99
2017-02-19T14:20:59.712Z,44.57
2017-02-19T14:22:12.838Z,43.01
2017-02-19T14:23:25.963Z,41
2017-02-19T14:24:39.086Z,40.5
2017-02-19T14:25:52.819Z,39.07
2017-02-19T14:27:05.959Z,39.11
2017-02-19T14:28:19.657Z,38.92
2017-02-19T14:29:32.796Z,40.82
2017-02-19T14:30:45.389Z,40.92
2017-02-19T14:31:59.096Z,40.23
2017-02-19T14:33:12.856Z,39.69
2017-02-19T14:34:25.377Z,39.01
2017-02-19T14:35:39.109Z,39.53
2017-02-19T14:36:52.859Z,37.86
2017-02-19T14:38:06.038Z,35.33
2017-02-19T14:39:19.779Z,35.33
2017-02-19T14:40:33.540Z,35.16
2017-02-19T14:41:46.691Z,34.1
2017-02-19T14:42:59.253Z,33.25
2017-02-19T14:44:12.963Z,33.53
2017-02-19T14:45:26.707Z,33.51
2017-02-19T14:46:39.837Z,36.51
2017-02-19T14:47:53.528Z,38.13
2017-02-19T14:49:06.639Z,38.31
2017-02-19T14:50:20.367Z,38.62
2017-02-19T14:51:34.078Z,39
2017-02-19T14:52:47.799Z,38.51
2017-02-19T14:54:01.602Z,38.23
2017-02-19T14:55:15.314Z,38.12
2017-02-19T14:56:28.461Z,37.35
2017-02-19T14:57:42.201Z,36.7
2017-02-19T14:58:55.928Z,34.95
2017-02-19T15:00:09.655Z,34.38
2017-02-19T15:01:23.379Z,34.36
2017-02-19T15:02:36.602Z,34.16
2017-02-19T15:03:49.746Z,34.16
2017-02-19T15:05:03.518Z,35.24
2017-02-19T15:06:16.625Z,35.23
2017-02-19T15:07:30.379Z,36.19
2017-02-19T15:08:44.149Z,36.68
2017-02-19T15:09:57.872Z,35.78
2017-02-19T15:11:10.993Z,37.04
2017-02-19T15:12:24.678Z,36.35
2017-02-19T15:13:38.417Z,35.19
2017-02-19T15:14:50.973Z,33.67
2017-02-19T15:16:04.718Z,33.22
2017-02-19T15:17:18.463Z,33.13
2017-02-19T15:18:32.246Z,32.92
2017-02-19T15:19:46.001Z,34.01
2017-02-19T15:20:59.731Z,34.49
2017-02-19T15:22:13.506Z,34.85
2017-02-19T15:23:27.325Z,35.13
2017-02-19T15:24:41.084Z,35.11
2017-02-19T15:25:54.829Z,33.46
2017-02-19T15:27:08.606Z,31.81
2017-02-19T15:28:22.377Z,30.95
2017-02-19T15:29:36.104Z,32.04
2017-02-19T15:30:48.621Z,30.66
2017-02-19T15:32:01.755Z,30.87
2017-02-19T15:33:14.301Z,30.79
2017-02-19T15:34:28.101Z,31.38
2017-02-19T15:35:41.879Z,32.45
2017-02-19T15:36:55.660Z,32.05
2017-02-19T15:38:09.448Z,32.76
2017-02-19T15:39:23.154Z,33.43
2017-02-19T15:40:36.899Z,33.89
2017-02-19T15:41:49.472Z,35.03
2017-02-19T15:43:03.238Z,34.64
2017-02-19T15:44:16.378Z,33.77
2017-02-19T15:45:30.109Z,33.12
2017-02-19T15:46:43.852Z,33.43
2017-02-19T15:47:57.597Z,33.33
2017-02-19T15:49:10.099Z,34.1
2017-02-19T15:50:23.819Z,36.03
2017-02-19T15:51:37.596Z,36.58
2017-02-19T15:52:51.349Z,35
2017-02-19T15:54:04.517Z,35.31
2017-02-19T15:55:18.206Z,32.74
2017-02-19T15:56:31.946Z,33.82
2017-02-19T15:57:45.744Z,33.12
2017-02-19T15:58:59.477Z,29.72